sensor_id;sensor_type;location;lat;lon;timestamp;pressure;altitude;pressure_sealevel;temperature;humidity
49545;BME280;74870;42.636;23.302;2024-02-23T00:00:07;92830.69;;;5.92;59.96
49545;BME280;74870;42.636;23.302;2024-02-23T00:02:37;92851.78;;;5.96;59.71
49545;BME280;74870;42.636;23.302;2024-02-23T00:05:02;92870.78;;;6.02;60.35
49545;BME280;74870;42.636;23.302;2024-02-23T00:07:28;92855.22;;;5.86;60.57
49545;BME280;74870;42.636;23.302;2024-02-23T00:09:53;92837.16;;;6.00;59.83
49545;BME280;74870;42.636;23.302;2024-02-23T00:12:18;92847.06;;;5.98;59.77
49545;BME280;74870;42.636;23.302;2024-02-23T00:14:44;92867.38;;;6.06;59.31
49545;BME280;74870;42.636;23.302;2024-02-23T00:17:09;92774.47;;;5.81;58.64
49545;BME280;74870;42.636;23.302;2024-02-23T00:19:35;92836.88;;;6.07;59.21
49545;BME280;74870;42.636;23.302;2024-02-23T00:22:00;92829.28;;;6.15;58.83
49545;BME280;74870;42.636;23.302;2024-02-23T00:24:26;92851.88;;;6.25;58.81
49545;BME280;74870;42.636;23.302;2024-02-23T00:26:51;92838.56;;;6.26;58.55
49545;BME280;74870;42.636;23.302;2024-02-23T00:29:17;92869.22;;;6.06;59.51
49545;BME280;74870;42.636;23.302;2024-02-23T00:31:43;92828.84;;;5.98;59.90
49545;BME280;74870;42.636;23.302;2024-02-23T00:34:10;92857.31;;;5.89;59.99
49545;BME280;74870;42.636;23.302;2024-02-23T00:36:41;92856.69;;;6.03;60.11
49545;BME280;74870;42.636;23.302;2024-02-23T00:39:07;92861.34;;;6.16;60.00
49545;BME280;74870;42.636;23.302;2024-02-23T00:41:34;92858.47;;;6.17;59.18
49545;BME280;74870;42.636;23.302;2024-02-23T00:43:59;92827.75;;;6.04;59.30
49545;BME280;74870;42.636;23.302;2024-02-23T00:46:24;92839.97;;;6.14;59.46
49545;BME280;74870;42.636;23.302;2024-02-23T00:48:50;92824.34;;;6.14;59.85
49545;BME280;74870;42.636;23.302;2024-02-23T00:51:16;92813.34;;;6.17;59.92
49545;BME280;74870;42.636;23.302;2024-02-23T00:53:41;92821.66;;;6.24;59.21
49545;BME280;74870;42.636;23.302;2024-02-23T00:56:06;92828.78;;;6.08;59.62
49545;BME280;74870;42.636;23.302;2024-02-23T00:58:32;92821.47;;;6.10;58.95
49545;BME280;74870;42.636;23.302;2024-02-23T01:00:57;92780.72;;;5.85;58.67
49545;BME280;74870;42.636;23.302;2024-02-23T01:03:23;92821.44;;;6.15;59.03
49545;BME280;74870;42.636;23.302;2024-02-23T01:05:48;92816.97;;;6.26;58.59
49545;BME280;74870;42.636;23.302;2024-02-23T01:08:14;92815.16;;;6.21;59.39
49545;BME280;74870;42.636;23.302;2024-02-23T01:10:39;92816.41;;;6.29;58.82
49545;BME280;74870;42.636;23.302;2024-02-23T01:13:04;92818.28;;;6.18;58.84
49545;BME280;74870;42.636;23.302;2024-02-23T01:15:30;92799.88;;;6.05;59.65
49545;BME280;74870;42.636;23.302;2024-02-23T01:17:56;92814.66;;;6.14;60.21
49545;BME280;74870;42.636;23.302;2024-02-23T01:20:22;92838.81;;;5.81;59.94
49545;BME280;74870;42.636;23.302;2024-02-23T01:22:47;92811.38;;;5.99;59.48
49545;BME280;74870;42.636;23.302;2024-02-23T01:25:12;92810.91;;;5.91;60.18
49545;BME280;74870;42.636;23.302;2024-02-23T01:27:41;92812.91;;;6.05;59.75
49545;BME280;74870;42.636;23.302;2024-02-23T01:30:06;92827.75;;;6.04;60.45
49545;BME280;74870;42.636;23.302;2024-02-23T01:32:32;92801.00;;;5.93;60.65
49545;BME280;74870;42.636;23.302;2024-02-23T01:34:57;92803.84;;;5.92;60.19
49545;BME280;74870;42.636;23.302;2024-02-23T01:37:23;92806.22;;;5.93;60.31
49545;BME280;74870;42.636;23.302;2024-02-23T01:39:48;92805.94;;;5.95;59.63
49545;BME280;74870;42.636;23.302;2024-02-23T01:42:13;92802.72;;;6.08;59.12
49545;BME280;74870;42.636;23.302;2024-02-23T01:44:39;92787.06;;;6.08;58.70
49545;BME280;74870;42.636;23.302;2024-02-23T01:47:04;92793.97;;;5.89;59.66
49545;BME280;74870;42.636;23.302;2024-02-23T01:49:30;92794.44;;;5.96;59.06
49545;BME280;74870;42.636;23.302;2024-02-23T01:51:58;92797.22;;;6.15;57.80
49545;BME280;74870;42.636;23.302;2024-02-23T01:54:25;92791.13;;;6.24;58.06
49545;BME280;74870;42.636;23.302;2024-02-23T01:56:51;92787.44;;;6.35;57.27
49545;BME280;74870;42.636;23.302;2024-02-23T01:59:16;92775.25;;;6.26;58.35
49545;BME280;74870;42.636;23.302;2024-02-23T02:01:45;92767.06;;;6.37;57.49
49545;BME280;74870;42.636;23.302;2024-02-23T02:04:10;92770.97;;;6.40;57.61
49545;BME280;74870;42.636;23.302;2024-02-23T02:06:36;92784.00;;;6.40;58.62
49545;BME280;74870;42.636;23.302;2024-02-23T02:09:02;92779.25;;;6.47;58.43
49545;BME280;74870;42.636;23.302;2024-02-23T02:11:27;92775.97;;;6.31;58.26
49545;BME280;74870;42.636;23.302;2024-02-23T02:13:53;92745.81;;;6.20;58.09
49545;BME280;74870;42.636;23.302;2024-02-23T02:16:18;92776.91;;;6.12;59.11
49545;BME280;74870;42.636;23.302;2024-02-23T02:18:44;92783.81;;;6.26;58.37
49545;BME280;74870;42.636;23.302;2024-02-23T02:21:12;92774.09;;;6.37;58.14
49545;BME280;74870;42.636;23.302;2024-02-23T02:23:37;92785.59;;;6.36;58.54
49545;BME280;74870;42.636;23.302;2024-02-23T02:26:03;92772.31;;;6.32;58.93
49545;BME280;74870;42.636;23.302;2024-02-23T02:28:29;92785.25;;;6.47;57.77
49545;BME280;74870;42.636;23.302;2024-02-23T02:30:55;92790.47;;;6.47;57.65
49545;BME280;74870;42.636;23.302;2024-02-23T02:33:21;92795.22;;;6.02;58.77
49545;BME280;74870;42.636;23.302;2024-02-23T02:35:47;92799.44;;;6.31;58.41
49545;BME280;74870;42.636;23.302;2024-02-23T02:38:13;92795.97;;;6.46;58.31
49545;BME280;74870;42.636;23.302;2024-02-23T02:40:38;92783.31;;;6.29;58.26
49545;BME280;74870;42.636;23.302;2024-02-23T02:43:04;92778.09;;;6.24;58.37
49545;BME280;74870;42.636;23.302;2024-02-23T02:45:30;92789.56;;;6.28;58.94
49545;BME280;74870;42.636;23.302;2024-02-23T02:47:55;92786.72;;;6.25;59.31
49545;BME280;74870;42.636;23.302;2024-02-23T02:50:21;92792.63;;;6.35;58.82
49545;BME280;74870;42.636;23.302;2024-02-23T02:52:47;92778.41;;;6.56;58.50
49545;BME280;74870;42.636;23.302;2024-02-23T02:55:12;92781.16;;;6.36;59.05
49545;BME280;74870;42.636;23.302;2024-02-23T02:57:38;92779.59;;;6.35;59.02
49545;BME280;74870;42.636;23.302;2024-02-23T03:00:04;92772.72;;;6.49;58.82
49545;BME280;74870;42.636;23.302;2024-02-23T03:02:31;92784.31;;;6.33;58.82
49545;BME280;74870;42.636;23.302;2024-02-23T03:04:57;92778.59;;;6.31;59.42
49545;BME280;74870;42.636;23.302;2024-02-23T03:07:22;92791.31;;;6.38;59.26
49545;BME280;74870;42.636;23.302;2024-02-23T03:09:47;92782.56;;;6.24;59.92
49545;BME280;74870;42.636;23.302;2024-02-23T03:12:14;92771.78;;;6.35;59.21
49545;BME280;74870;42.636;23.302;2024-02-23T03:14:40;92787.56;;;6.49;59.36
49545;BME280;74870;42.636;23.302;2024-02-23T03:17:07;92785.03;;;6.39;59.83
49545;BME280;74870;42.636;23.302;2024-02-23T03:19:33;92787.56;;;6.49;59.71
49545;BME280;74870;42.636;23.302;2024-02-23T03:21:59;92785.03;;;6.39;59.64
49545;BME280;74870;42.636;23.302;2024-02-23T03:24:24;92785.41;;;6.27;59.97
49545;BME280;74870;42.636;23.302;2024-02-23T03:26:49;92795.16;;;6.45;59.45
49545;BME280;74870;42.636;23.302;2024-02-23T03:29:15;92788.63;;;6.48;59.40
49545;BME280;74870;42.636;23.302;2024-02-23T03:31:41;92795.97;;;6.46;59.69
49545;BME280;74870;42.636;23.302;2024-02-23T03:34:06;92782.09;;;6.50;59.62
49545;BME280;74870;42.636;23.302;2024-02-23T03:36:33;92755.41;;;5.91;61.23
49545;BME280;74870;42.636;23.302;2024-02-23T03:38:59;92785.69;;;6.21;60.49
49545;BME280;74870;42.636;23.302;2024-02-23T03:41:24;92788.03;;;6.22;60.75
49545;BME280;74870;42.636;23.302;2024-02-23T03:43:49;92781.56;;;6.20;60.79
49545;BME280;74870;42.636;23.302;2024-02-23T03:46:15;92780.84;;;6.09;61.16
49545;BME280;74870;42.636;23.302;2024-02-23T03:48:41;92773.53;;;6.06;60.84
49545;BME280;74870;42.636;23.302;2024-02-23T03:51:08;92778.06;;;5.96;61.24
49545;BME280;74870;42.636;23.302;2024-02-23T03:53:34;92769.72;;;5.93;61.50
49545;BME280;74870;42.636;23.302;2024-02-23T03:55:59;92761.91;;;5.93;61.53
49545;BME280;74870;42.636;23.302;2024-02-23T03:58:25;92777.22;;;6.00;61.71
49545;BME280;74870;42.636;23.302;2024-02-23T04:00:51;92769.38;;;6.05;61.56
49545;BME280;74870;42.636;23.302;2024-02-23T04:03:16;92790.50;;;6.04;61.86
49545;BME280;74870;42.636;23.302;2024-02-23T04:05:42;92769.16;;;6.02;61.68
49545;BME280;74870;42.636;23.302;2024-02-23T04:08:07;92777.94;;;6.11;61.75
49545;BME280;74870;42.636;23.302;2024-02-23T04:10:33;92777.72;;;6.07;61.49
49545;BME280;74870;42.636;23.302;2024-02-23T04:12:58;92788.78;;;5.79;62.40
49545;BME280;74870;42.636;23.302;2024-02-23T04:15:24;92794.94;;;6.03;62.06
49545;BME280;74870;42.636;23.302;2024-02-23T04:17:49;92796.97;;;6.11;61.53
49545;BME280;74870;42.636;23.302;2024-02-23T04:20:14;92780.03;;;6.09;61.19
49545;BME280;74870;42.636;23.302;2024-02-23T04:22:40;92799.28;;;6.18;61.37
49545;BME280;74870;42.636;23.302;2024-02-23T04:25:05;92796.47;;;6.04;61.49
49545;BME280;74870;42.636;23.302;2024-02-23T04:27:31;92793.72;;;5.90;61.96
49545;BME280;74870;42.636;23.302;2024-02-23T04:29:57;92800.44;;;5.97;61.87
49545;BME280;74870;42.636;23.302;2024-02-23T04:32:22;92793.94;;;5.99;61.94
49545;BME280;74870;42.636;23.302;2024-02-23T04:34:48;92803.59;;;5.93;61.77
49545;BME280;74870;42.636;23.302;2024-02-23T04:37:13;92802.66;;;5.64;63.01
49545;BME280;74870;42.636;23.302;2024-02-23T04:39:39;92805.22;;;5.74;62.61
49545;BME280;74870;42.636;23.302;2024-02-23T04:42:07;92801.03;;;5.78;62.23
49545;BME280;74870;42.636;23.302;2024-02-23T04:44:34;92794.13;;;5.54;63.13
49545;BME280;74870;42.636;23.302;2024-02-23T04:46:59;92805.38;;;5.39;63.29
49545;BME280;74870;42.636;23.302;2024-02-23T04:49:24;92796.78;;;5.39;63.15
49545;BME280;74870;42.636;23.302;2024-02-23T04:51:50;92801.22;;;5.43;62.46
49545;BME280;74870;42.636;23.302;2024-02-23T04:54:15;92779.78;;;5.61;61.93
49545;BME280;74870;42.636;23.302;2024-02-23T04:56:40;92783.69;;;5.54;62.18
49545;BME280;74870;42.636;23.302;2024-02-23T04:59:06;92806.13;;;5.45;62.48
49545;BME280;74870;42.636;23.302;2024-02-23T05:01:35;92783.50;;;5.40;61.96
49545;BME280;74870;42.636;23.302;2024-02-23T05:04:02;92804.75;;;5.62;61.50
49545;BME280;74870;42.636;23.302;2024-02-23T05:06:28;92813.88;;;5.65;61.54
49545;BME280;74870;42.636;23.302;2024-02-23T05:08:54;92815.13;;;5.77;61.48
49545;BME280;74870;42.636;23.302;2024-02-23T05:11:19;92821.66;;;5.70;61.56
49545;BME280;74870;42.636;23.302;2024-02-23T05:13:44;92817.72;;;5.72;61.53
49545;BME280;74870;42.636;23.302;2024-02-23T05:16:10;92810.72;;;5.73;61.07
49545;BME280;74870;42.636;23.302;2024-02-23T05:18:35;92826.06;;;5.74;61.36
49545;BME280;74870;42.636;23.302;2024-02-23T05:21:01;92829.41;;;5.90;60.78
49545;BME280;74870;42.636;23.302;2024-02-23T05:23:26;92814.38;;;5.67;60.97
49545;BME280;74870;42.636;23.302;2024-02-23T05:25:52;92826.91;;;5.65;61.43
49545;BME280;74870;42.636;23.302;2024-02-23T05:28:17;92832.81;;;5.80;60.60
49545;BME280;74870;42.636;23.302;2024-02-23T05:30:43;92834.88;;;5.93;60.29
49545;BME280;74870;42.636;23.302;2024-02-23T05:33:08;92840.03;;;5.99;60.35
49545;BME280;74870;42.636;23.302;2024-02-23T05:35:33;92828.88;;;5.88;60.62
49545;BME280;74870;42.636;23.302;2024-02-23T05:37:59;92840.81;;;5.99;60.30
49545;BME280;74870;42.636;23.302;2024-02-23T05:40:24;92839.31;;;5.78;61.06
49545;BME280;74870;42.636;23.302;2024-02-23T05:42:50;92838.97;;;6.05;60.32
49545;BME280;74870;42.636;23.302;2024-02-23T05:45:15;92834.44;;;6.20;59.88
49545;BME280;74870;42.636;23.302;2024-02-23T05:47:41;92844.56;;;6.27;59.58
49545;BME280;74870;42.636;23.302;2024-02-23T05:50:08;92833.63;;;6.25;59.64
49545;BME280;74870;42.636;23.302;2024-02-23T05:52:37;92834.44;;;6.20;59.79
49545;BME280;74870;42.636;23.302;2024-02-23T05:55:03;92844.41;;;6.52;58.98
49545;BME280;74870;42.636;23.302;2024-02-23T05:57:29;92839.88;;;6.67;58.61
49545;BME280;74870;42.636;23.302;2024-02-23T05:59:55;92854.06;;;7.19;57.42
49545;BME280;74870;42.636;23.302;2024-02-23T06:02:23;92851.38;;;7.24;57.14
49545;BME280;74870;42.636;23.302;2024-02-23T06:04:49;92840.88;;;7.76;55.20
49545;BME280;74870;42.636;23.302;2024-02-23T06:07:14;92859.19;;;7.52;56.34
49545;BME280;74870;42.636;23.302;2024-02-23T06:09:41;92852.59;;;8.02;54.49
49545;BME280;74870;42.636;23.302;2024-02-23T06:13:09;92852.09;;;8.42;53.33
49545;BME280;74870;42.636;23.302;2024-02-23T06:15:37;92836.03;;;8.68;52.73
49545;BME280;74870;42.636;23.302;2024-02-23T06:18:07;92864.06;;;8.99;53.01
49545;BME280;74870;42.636;23.302;2024-02-23T06:20:32;92861.50;;;9.72;51.39
49545;BME280;74870;42.636;23.302;2024-02-23T06:22:58;92847.00;;;10.02;49.14
49545;BME280;74870;42.636;23.302;2024-02-23T06:25:25;92807.59;;;9.80;49.09
49545;BME280;74870;42.636;23.302;2024-02-23T06:27:50;92820.31;;;10.13;49.20
49545;BME280;74870;42.636;23.302;2024-02-23T06:30:15;92853.63;;;10.13;48.98
49545;BME280;74870;42.636;23.302;2024-02-23T06:32:41;92880.28;;;10.91;47.91
49545;BME280;74870;42.636;23.302;2024-02-23T06:35:08;92856.81;;;10.73;47.46
49545;BME280;74870;42.636;23.302;2024-02-23T06:37:34;92866.91;;;10.79;47.12
49545;BME280;74870;42.636;23.302;2024-02-23T06:39:59;92848.69;;;10.83;47.15
49545;BME280;74870;42.636;23.302;2024-02-23T06:42:24;92865.44;;;10.51;47.97
49545;BME280;74870;42.636;23.302;2024-02-23T06:44:50;92870.41;;;10.75;47.29
49545;BME280;74870;42.636;23.302;2024-02-23T06:47:15;92849.59;;;10.78;47.13
49545;BME280;74870;42.636;23.302;2024-02-23T06:49:42;92864.56;;;10.56;48.38
49545;BME280;74870;42.636;23.302;2024-02-23T06:52:08;92870.75;;;10.60;48.15
49545;BME280;74870;42.636;23.302;2024-02-23T06:54:33;92849.53;;;10.34;48.09
49545;BME280;74870;42.636;23.302;2024-02-23T06:56:59;92858.81;;;10.54;48.17
49545;BME280;74870;42.636;23.302;2024-02-23T06:59:24;92863.47;;;10.92;47.74
49545;BME280;74870;42.636;23.302;2024-02-23T07:01:50;92850.19;;;10.97;47.37
49545;BME280;74870;42.636;23.302;2024-02-23T07:04:16;92869.19;;;10.72;47.56
49545;BME280;74870;42.636;23.302;2024-02-23T07:06:42;92869.19;;;10.23;48.76
49545;BME280;74870;42.636;23.302;2024-02-23T07:09:08;92859.94;;;9.85;49.70
49545;BME280;74870;42.636;23.302;2024-02-23T07:11:33;92853.72;;;9.81;50.22
49545;BME280;74870;42.636;23.302;2024-02-23T07:13:59;92858.38;;;9.84;50.05
49545;BME280;74870;42.636;23.302;2024-02-23T07:16:24;92876.03;;;9.51;50.81
49545;BME280;74870;42.636;23.302;2024-02-23T07:18:49;92868.75;;;9.02;52.41
49545;BME280;74870;42.636;23.302;2024-02-23T07:21:17;92835.56;;;8.98;52.41
49545;BME280;74870;42.636;23.302;2024-02-23T07:23:43;92863.38;;;8.75;53.40
49545;BME280;74870;42.636;23.302;2024-02-23T07:26:08;92869.06;;;8.64;53.14
49545;BME280;74870;42.636;23.302;2024-02-23T07:28:34;92846.72;;;8.53;53.66
49545;BME280;74870;42.636;23.302;2024-02-23T07:30:59;92854.06;;;8.51;53.80
49545;BME280;74870;42.636;23.302;2024-02-23T07:33:24;92851.59;;;8.59;53.57
49545;BME280;74870;42.636;23.302;2024-02-23T07:35:50;92837.72;;;8.59;53.49
49545;BME280;74870;42.636;23.302;2024-02-23T07:38:15;92840.03;;;8.79;52.98
49545;BME280;74870;42.636;23.302;2024-02-23T07:40:43;92851.25;;;9.30;52.23
49545;BME280;74870;42.636;23.302;2024-02-23T07:43:09;92857.09;;;9.41;51.55
49545;BME280;74870;42.636;23.302;2024-02-23T07:45:36;92840.28;;;9.42;51.64
49545;BME280;74870;42.636;23.302;2024-02-23T07:48:02;92865.75;;;9.55;52.57
49545;BME280;74870;42.636;23.302;2024-02-23T07:50:27;92842.16;;;9.82;51.52
49545;BME280;74870;42.636;23.302;2024-02-23T07:52:53;92865.19;;;9.85;51.56
49545;BME280;74870;42.636;23.302;2024-02-23T07:55:18;92863.31;;;10.26;51.25
49545;BME280;74870;42.636;23.302;2024-02-23T07:57:44;92852.97;;;10.57;50.54
49545;BME280;74870;42.636;23.302;2024-02-23T08:00:09;92870.91;;;10.41;50.47
49545;BME280;74870;42.636;23.302;2024-02-23T08:02:36;92868.28;;;10.14;50.96
49545;BME280;74870;42.636;23.302;2024-02-23T08:05:01;92852.44;;;9.92;51.83
49545;BME280;74870;42.636;23.302;2024-02-23T08:07:27;92860.50;;;9.82;52.52
49545;BME280;74870;42.636;23.302;2024-02-23T08:09:53;92852.16;;;9.80;52.58
49545;BME280;74870;42.636;23.302;2024-02-23T08:12:19;92846.44;;;9.64;52.71
49545;BME280;74870;42.636;23.302;2024-02-23T08:14:44;92847.53;;;9.17;54.10
49545;BME280;74870;42.636;23.302;2024-02-23T08:17:11;92848.94;;;9.42;54.03
49545;BME280;74870;42.636;23.302;2024-02-23T08:19:37;92849.06;;;9.05;54.78
49545;BME280;74870;42.636;23.302;2024-02-23T08:22:02;92847.16;;;9.24;54.92
49545;BME280;74870;42.636;23.302;2024-02-23T08:24:28;92842.53;;;9.35;54.58
49545;BME280;74870;42.636;23.302;2024-02-23T08:26:53;92837.13;;;9.58;53.63
49545;BME280;74870;42.636;23.302;2024-02-23T08:29:19;92847.03;;;10.16;52.87
49545;BME280;74870;42.636;23.302;2024-02-23T08:31:44;92862.56;;;10.26;52.85
49545;BME280;74870;42.636;23.302;2024-02-23T08:34:10;92845.75;;;10.40;51.96
49545;BME280;74870;42.636;23.302;2024-02-23T08:36:35;92845.66;;;10.67;52.33
49545;BME280;74870;42.636;23.302;2024-02-23T08:39:01;92866.91;;;11.24;51.45
49545;BME280;74870;42.636;23.302;2024-02-23T08:41:26;92842.16;;;10.94;50.69
49545;BME280;74870;42.636;23.302;2024-02-23T08:43:52;92855.34;;;11.03;50.90
49545;BME280;74870;42.636;23.302;2024-02-23T08:46:17;92848.50;;;11.24;50.83
49545;BME280;74870;42.636;23.302;2024-02-23T08:48:43;92867.38;;;11.26;50.02
49545;BME280;74870;42.636;23.302;2024-02-23T08:51:09;92869.84;;;11.22;50.63
49545;BME280;74870;42.636;23.302;2024-02-23T08:53:34;92873.19;;;11.36;49.93
49545;BME280;74870;42.636;23.302;2024-02-23T08:55:59;92836.22;;;11.63;49.45
49545;BME280;74870;42.636;23.302;2024-02-23T08:58:25;92840.06;;;11.05;50.58
49545;BME280;74870;42.636;23.302;2024-02-23T09:00:51;92863.56;;;11.10;50.67
49545;BME280;74870;42.636;23.302;2024-02-23T09:03:18;92836.44;;;11.53;50.19
49545;BME280;74870;42.636;23.302;2024-02-23T09:05:43;92872.31;;;11.71;48.71
49545;BME280;74870;42.636;23.302;2024-02-23T09:08:09;92839.47;;;12.00;49.19
49545;BME280;74870;42.636;23.302;2024-02-23T09:10:35;92838.19;;;11.89;48.52
49545;BME280;74870;42.636;23.302;2024-02-23T09:13:00;92851.56;;;11.70;48.89
49545;BME280;74870;42.636;23.302;2024-02-23T09:15:26;92823.56;;;11.13;50.07
49545;BME280;74870;42.636;23.302;2024-02-23T09:17:51;92840.28;;;11.17;48.82
49545;BME280;74870;42.636;23.302;2024-02-23T09:20:17;92842.94;;;11.25;48.87
49545;BME280;74870;42.636;23.302;2024-02-23T09:22:43;92839.06;;;11.45;47.89
49545;BME280;74870;42.636;23.302;2024-02-23T09:25:08;92863.41;;;11.59;48.11
49545;BME280;74870;42.636;23.302;2024-02-23T09:27:33;92832.34;;;11.61;47.72
49545;BME280;74870;42.636;23.302;2024-02-23T09:30:02;92782.56;;;11.34;47.71
49545;BME280;74870;42.636;23.302;2024-02-23T09:32:27;92838.28;;;11.75;48.02
49545;BME280;74870;42.636;23.302;2024-02-23T09:34:52;92826.59;;;11.90;46.80
49545;BME280;74870;42.636;23.302;2024-02-23T09:37:18;92834.28;;;11.86;47.12
49545;BME280;74870;42.636;23.302;2024-02-23T09:39:43;92834.09;;;12.13;46.62
49545;BME280;74870;42.636;23.302;2024-02-23T09:42:10;92824.06;;;12.49;46.53
49545;BME280;74870;42.636;23.302;2024-02-23T09:44:39;92830.69;;;12.21;45.73
49545;BME280;74870;42.636;23.302;2024-02-23T09:47:07;92836.00;;;12.47;45.38
49545;BME280;74870;42.636;23.302;2024-02-23T09:49:39;92832.75;;;12.76;44.71
49545;BME280;74870;42.636;23.302;2024-02-23T09:52:07;92838.59;;;12.38;45.02
49545;BME280;74870;42.636;23.302;2024-02-23T09:54:33;92822.38;;;12.62;44.89
49545;BME280;74870;42.636;23.302;2024-02-23T09:56:59;92816.03;;;12.72;44.21
49545;BME280;74870;42.636;23.302;2024-02-23T09:59:26;92827.31;;;12.81;44.31
49545;BME280;74870;42.636;23.302;2024-02-23T10:01:53;92809.69;;;12.64;43.69
49545;BME280;74870;42.636;23.302;2024-02-23T10:04:19;92819.75;;;12.88;43.85
49545;BME280;74870;42.636;23.302;2024-02-23T10:06:44;92817.41;;;13.03;43.58
49545;BME280;74870;42.636;23.302;2024-02-23T10:09:10;92808.88;;;12.98;42.27
49545;BME280;74870;42.636;23.302;2024-02-23T10:11:37;92800.69;;;12.82;42.89
49545;BME280;74870;42.636;23.302;2024-02-23T10:14:03;92795.09;;;12.92;43.45
49545;BME280;74870;42.636;23.302;2024-02-23T10:16:28;92798.38;;;13.15;43.18
49545;BME280;74870;42.636;23.302;2024-02-23T10:18:54;92806.47;;;13.47;43.42
49545;BME280;74870;42.636;23.302;2024-02-23T10:21:19;92806.47;;;13.56;42.01
49545;BME280;74870;42.636;23.302;2024-02-23T10:23:45;92794.63;;;13.24;42.06
49545;BME280;74870;42.636;23.302;2024-02-23T10:26:11;92803.53;;;13.49;42.26
49545;BME280;74870;42.636;23.302;2024-02-23T10:28:36;92800.00;;;13.45;41.84
49545;BME280;74870;42.636;23.302;2024-02-23T10:31:04;92809.31;;;13.42;41.59
49545;BME280;74870;42.636;23.302;2024-02-23T10:33:30;92797.13;;;13.67;40.65
49545;BME280;74870;42.636;23.302;2024-02-23T10:35:56;92796.53;;;13.91;40.53
49545;BME280;74870;42.636;23.302;2024-02-23T11:02:51;92759.50;;;14.37;nan
49545;BME280;74870;42.636;23.302;2024-02-23T11:05:18;92766.53;;;14.54;nan
49545;BME280;74870;42.636;23.302;2024-02-23T11:07:46;92762.91;;;14.38;nan
49545;BME280;74870;42.636;23.302;2024-02-23T11:10:16;92753.03;;;13.97;nan
49545;BME280;74870;42.636;23.302;2024-02-23T11:12:43;92762.00;;;13.75;nan
49545;BME280;74870;42.636;23.302;2024-02-23T11:15:09;92747.81;;;13.59;nan
49545;BME280;74870;42.636;23.302;2024-02-23T11:17:35;92752.91;;;13.93;nan
49545;BME280;74870;42.636;23.302;2024-02-23T11:20:03;92768.16;;;13.50;nan
49545;BME280;74870;42.636;23.302;2024-02-23T11:22:34;92754.94;;;13.88;nan
49545;BME280;74870;42.636;23.302;2024-02-23T11:25:04;92741.84;;;14.00;nan
49545;BME280;74870;42.636;23.302;2024-02-23T11:27:31;92758.44;;;14.00;nan
49545;BME280;74870;42.636;23.302;2024-02-23T11:30:08;92748.94;;;13.79;nan
49545;BME280;74870;42.636;23.302;2024-02-23T11:32:40;92748.72;;;13.63;nan
49545;BME280;74870;42.636;23.302;2024-02-23T11:35:07;92764.63;;;14.04;nan
49545;BME280;74870;42.636;23.302;2024-02-23T11:37:45;92731.47;;;13.95;nan
49545;BME280;74870;42.636;23.302;2024-02-23T11:40:12;92700.13;;;13.64;nan
49545;BME280;74870;42.636;23.302;2024-02-23T11:42:42;92725.38;;;14.03;nan
49545;BME280;74870;42.636;23.302;2024-02-23T11:45:09;92741.00;;;14.08;nan
49545;BME280;74870;42.636;23.302;2024-02-23T11:47:34;92724.09;;;13.80;nan
49545;BME280;74870;42.636;23.302;2024-02-23T11:49:59;92734.78;;;14.12;nan
49545;BME280;74870;42.636;23.302;2024-02-23T11:52:25;92734.25;;;14.19;nan
49545;BME280;74870;42.636;23.302;2024-02-23T11:54:51;92748.22;;;13.99;nan
49545;BME280;74870;42.636;23.302;2024-02-23T11:57:16;92762.28;;;14.11;nan
49545;BME280;74870;42.636;23.302;2024-02-23T11:59:42;92717.13;;;14.25;nan
49545;BME280;74870;42.636;23.302;2024-02-23T12:02:07;92706.25;;;14.26;nan
49545;BME280;74870;42.636;23.302;2024-02-23T12:04:33;92729.69;;;13.78;nan
49545;BME280;74870;42.636;23.302;2024-02-23T12:06:58;92673.00;;;13.84;nan
49545;BME280;74870;42.636;23.302;2024-02-23T12:09:24;92708.44;;;14.24;nan
49545;BME280;74870;42.636;23.302;2024-02-23T12:11:50;92693.69;;;14.23;nan
49545;BME280;74870;42.636;23.302;2024-02-23T12:14:16;92644.31;;;13.83;nan
49545;BME280;74870;42.636;23.302;2024-02-23T12:16:43;92721.97;;;14.23;nan
49545;BME280;74870;42.636;23.302;2024-02-23T12:19:08;92695.81;;;13.89;nan
49545;BME280;74870;42.636;23.302;2024-02-23T12:21:34;92679.56;;;13.78;nan
49545;BME280;74870;42.636;23.302;2024-02-23T12:24:04;92671.63;;;14.07;nan
49545;BME280;74870;42.636;23.302;2024-02-23T12:26:29;92685.25;;;13.89;nan
49545;BME280;74870;42.636;23.302;2024-02-23T12:29:00;92685.34;;;14.21;nan
49545;BME280;74870;42.636;23.302;2024-02-23T12:31:26;92667.03;;;13.96;nan
49545;BME280;74870;42.636;23.302;2024-02-23T12:33:51;92697.66;;;14.38;nan
49545;BME280;74870;42.636;23.302;2024-02-23T12:36:17;92657.09;;;14.55;nan
49545;BME280;74870;42.636;23.302;2024-02-23T12:38:43;92694.72;;;14.72;nan
49545;BME280;74870;42.636;23.302;2024-02-23T12:41:09;92683.94;;;14.77;nan
49545;BME280;74870;42.636;23.302;2024-02-23T12:43:34;92658.63;;;14.76;nan
49545;BME280;74870;42.636;23.302;2024-02-23T12:46:00;92679.41;;;14.78;nan
49545;BME280;74870;42.636;23.302;2024-02-23T12:48:28;92668.97;;;14.81;nan
49545;BME280;74870;42.636;23.302;2024-02-23T12:50:53;92669.31;;;14.80;nan
49545;BME280;74870;42.636;23.302;2024-02-23T12:53:32;92687.59;;;14.97;nan
49545;BME280;74870;42.636;23.302;2024-02-23T12:56:17;92675.97;;;15.10;nan
49545;BME280;74870;42.636;23.302;2024-02-23T12:58:43;92687.53;;;14.73;nan
49545;BME280;74870;42.636;23.302;2024-02-23T13:01:10;92679.41;;;14.78;nan
49545;BME280;74870;42.636;23.302;2024-02-23T13:03:37;92652.69;;;14.91;nan
49545;BME280;74870;42.636;23.302;2024-02-23T13:06:04;92694.00;;;14.63;nan
49545;BME280;74870;42.636;23.302;2024-02-23T13:08:30;92679.97;;;14.83;nan
49545;BME280;74870;42.636;23.302;2024-02-23T13:10:57;92677.16;;;15.00;nan
49545;BME280;74870;42.636;23.302;2024-02-23T13:13:22;92676.06;;;15.01;nan
49545;BME280;74870;42.636;23.302;2024-02-23T13:15:50;92676.38;;;14.88;nan
49545;BME280;74870;42.636;23.302;2024-02-23T13:18:16;92667.56;;;14.51;nan